sensor_id;sensor_type;location;lat;lon;timestamp;pressure;altitude;pressure_sealevel;temperature;humidity
36598;BME280;22607;49.550;11.940;2024-03-23T00:54:00;96110.72;;;8.87;100.00
36598;BME280;22607;49.550;11.940;2024-03-23T00:56:26;96125.25;;;8.89;100.00
36598;BME280;22607;49.550;11.940;2024-03-23T00:58:51;96119.84;;;8.76;100.00
36598;BME280;22607;49.550;11.940;2024-03-23T01:01:17;96107.63;;;8.68;100.00
36598;BME280;22607;49.550;11.940;2024-03-23T01:03:43;96113.63;;;8.77;100.00
36598;BME280;22607;49.550;11.940;2024-03-23T01:06:08;96102.41;;;8.68;100.00
36598;BME280;22607;49.550;11.940;2024-03-23T01:08:34;96099.47;;;8.86;100.00
36598;BME280;22607;49.550;11.940;2024-03-23T01:11:00;96106.31;;;8.87;100.00
36598;BME280;22607;49.550;11.940;2024-03-23T01:13:27;96092.75;;;8.69;100.00
36598;BME280;22607;49.550;11.940;2024-03-23T01:15:55;96087.63;;;8.52;100.00
36598;BME280;22607;49.550;11.940;2024-03-23T01:18:22;96082.00;;;8.40;100.00
36598;BME280;22607;49.550;11.940;2024-03-23T01:20:48;96076.88;;;8.32;100.00
36598;BME280;22607;49.550;11.940;2024-03-23T01:23:15;96087.63;;;8.52;100.00
36598;BME280;22607;49.550;11.940;2024-03-23T01:25:41;96075.09;;;8.47;100.00
36598;BME280;22607;49.550;11.940;2024-03-23T01:28:07;96079.66;;;8.30;100.00
36598;BME280;22607;49.550;11.940;2024-03-23T01:30:33;96072.81;;;8.44;100.00
36598;BME280;22607;49.550;11.940;2024-03-23T01:32:59;96071.28;;;8.50;100.00
36598;BME280;22607;49.550;11.940;2024-03-23T01:35:25;96070.59;;;8.56;100.00
36598;BME280;22607;49.550;11.940;2024-03-23T01:37:51;96063.13;;;8.30;100.00
36598;BME280;22607;49.550;11.940;2024-03-23T01:40:16;96060.06;;;8.26;100.00
36598;BME280;22607;49.550;11.940;2024-03-23T01:42:42;96056.72;;;8.32;100.00
36598;BME280;22607;49.550;11.940;2024-03-23T01:45:09;96067.97;;;8.18;100.00
36598;BME280;22607;49.550;11.940;2024-03-23T01:47:37;96063.28;;;8.13;100.00
36598;BME280;22607;49.550;11.940;2024-03-23T01:50:04;96063.72;;;8.17;100.00
36598;BME280;22607;49.550;11.940;2024-03-23T01:52:30;96058.00;;;7.98;100.00
36598;BME280;22607;49.550;11.940;2024-03-23T01:54:56;96051.53;;;8.09;100.00
36598;BME280;22607;49.550;11.940;2024-03-23T01:57:21;96038.81;;;8.06;100.00
36598;BME280;22607;49.550;11.940;2024-03-23T01:59:48;96043.88;;;8.07;100.00
36598;BME280;22607;49.550;11.940;2024-03-23T02:02:14;96038.75;;;7.91;100.00
36598;BME280;22607;49.550;11.940;2024-03-23T02:04:43;96040.22;;;7.70;100.00
36598;BME280;22607;49.550;11.940;2024-03-23T02:07:08;96031.78;;;7.83;100.00
36598;BME280;22607;49.550;11.940;2024-03-23T02:09:34;96039.13;;;7.87;100.00
36598;BME280;22607;49.550;11.940;2024-03-23T02:12:02;96026.84;;;7.88;100.00
36598;BME280;22607;49.550;11.940;2024-03-23T02:14:27;96030.72;;;7.92;100.00
36598;BME280;22607;49.550;11.940;2024-03-23T02:16:53;96026.09;;;7.79;100.00
36598;BME280;22607;49.550;11.940;2024-03-23T02:19:18;96017.69;;;7.69;100.00
36598;BME280;22607;49.550;11.940;2024-03-23T02:21:44;96008.19;;;7.68;100.00
36598;BME280;22607;49.550;11.940;2024-03-23T02:24:10;96015.06;;;7.69;100.00
36598;BME280;22607;49.550;11.940;2024-03-23T02:26:35;96020.31;;;7.84;100.00
36598;BME280;22607;49.550;11.940;2024-03-23T02:29:01;96002.63;;;7.71;100.00
36598;BME280;22607;49.550;11.940;2024-03-23T02:31:26;96007.22;;;7.69;100.00
36598;BME280;22607;49.550;11.940;2024-03-23T02:33:52;96007.16;;;7.77;100.00
36598;BME280;22607;49.550;11.940;2024-03-23T02:36:18;95996.69;;;7.77;100.00
36598;BME280;22607;49.550;11.940;2024-03-23T02:38:43;96007.47;;;7.82;100.00
36598;BME280;22607;49.550;11.940;2024-03-23T02:41:09;95982.72;;;7.70;100.00
36598;BME280;22607;49.550;11.940;2024-03-23T02:43:34;95986.72;;;7.57;100.00
36598;BME280;22607;49.550;11.940;2024-03-23T02:46:00;95984.56;;;7.61;100.00
36598;BME280;22607;49.550;11.940;2024-03-23T02:48:26;95979.53;;;7.59;100.00
36598;BME280;22607;49.550;11.940;2024-03-23T02:50:52;95972.34;;;7.53;100.00
36598;BME280;22607;49.550;11.940;2024-03-23T02:53:19;95968.78;;;7.54;100.00
36598;BME280;22607;49.550;11.940;2024-03-23T02:55:45;95975.50;;;7.48;100.00
36598;BME280;22607;49.550;11.940;2024-03-23T02:58:11;95954.94;;;7.45;100.00
36598;BME280;22607;49.550;11.940;2024-03-23T03:00:36;95970.63;;;7.69;100.00
36598;BME280;22607;49.550;11.940;2024-03-23T03:03:02;95957.47;;;7.30;100.00
36598;BME280;22607;49.550;11.940;2024-03-23T03:05:28;95951.53;;;7.45;100.00
36598;BME280;22607;49.550;11.940;2024-03-23T03:07:54;95942.69;;;7.46;100.00
36598;BME280;22607;49.550;11.940;2024-03-23T03:10:20;95949.88;;;7.44;100.00
36598;BME280;22607;49.550;11.940;2024-03-23T03:12:50;95931.88;;;7.49;100.00
36598;BME280;22607;49.550;11.940;2024-03-23T03:15:16;95937.09;;;7.49;100.00
36598;BME280;22607;49.550;11.940;2024-03-23T03:17:42;95938.38;;;7.53;100.00
36598;BME280;22607;49.550;11.940;2024-03-23T03:20:08;95936.50;;;7.47;100.00
36598;BME280;22607;49.550;11.940;2024-03-23T03:22:39;95929.34;;;7.41;100.00
36598;BME280;22607;49.550;11.940;2024-03-23T03:25:05;95915.75;;;7.45;100.00
36598;BME280;22607;49.550;11.940;2024-03-23T03:27:33;95922.47;;;7.40;100.00
36598;BME280;22607;49.550;11.940;2024-03-23T03:29:59;95919.06;;;7.39;100.00
36598;BME280;22607;49.550;11.940;2024-03-23T03:32:30;95912.69;;;7.42;100.00
36598;BME280;22607;49.550;11.940;2024-03-23T03:34:56;95904.78;;;7.50;100.00
36598;BME280;22607;49.550;11.940;2024-03-23T03:37:21;95900.25;;;7.44;100.00
36598;BME280;22607;49.550;11.940;2024-03-23T03:39:47;95903.19;;;7.64;100.00
36598;BME280;22607;49.550;11.940;2024-03-23T03:42:12;95902.53;;;7.47;100.00
36598;BME280;22607;49.550;11.940;2024-03-23T03:44:38;95903.50;;;7.46;100.00
36598;BME280;22607;49.550;11.940;2024-03-23T03:47:05;95891.03;;;7.33;100.00
36598;BME280;22607;49.550;11.940;2024-03-23T03:49:31;95878.66;;;7.50;100.00
36598;BME280;22607;49.550;11.940;2024-03-23T03:51:57;95863.44;;;7.54;100.00
36598;BME280;22607;49.550;11.940;2024-03-23T03:54:22;95859.91;;;7.46;100.00
36598;BME280;22607;49.550;11.940;2024-03-23T03:56:49;95878.72;;;7.42;100.00
36598;BME280;22607;49.550;11.940;2024-03-23T03:59:15;95848.88;;;7.36;100.00
36598;BME280;22607;49.550;11.940;2024-03-23T04:01:41;95852.75;;;7.64;100.00
36598;BME280;22607;49.550;11.940;2024-03-23T04:04:06;95846.03;;;7.61;100.00
36598;BME280;22607;49.550;11.940;2024-03-23T04:06:32;95845.53;;;7.66;100.00
36598;BME280;22607;49.550;11.940;2024-03-23T04:08:59;95842.81;;;7.59;100.00
36598;BME280;22607;49.550;11.940;2024-03-23T04:11:25;95835.97;;;7.58;100.00
36598;BME280;22607;49.550;11.940;2024-03-23T04:13:50;95830.91;;;7.56;100.00
36598;BME280;22607;49.550;11.940;2024-03-23T04:16:29;95844.09;;;7.63;100.00
36598;BME280;22607;49.550;11.940;2024-03-23T04:18:55;95829.91;;;7.57;100.00
36598;BME280;22607;49.550;11.940;2024-03-23T04:21:25;95836.06;;;7.65;100.00
36598;BME280;22607;49.550;11.940;2024-03-23T04:23:51;95836.16;;;7.56;100.00
36598;BME280;22607;49.550;11.940;2024-03-23T04:26:17;95830.66;;;7.66;100.00
36598;BME280;22607;49.550;11.940;2024-03-23T04:28:43;95815.16;;;7.65;100.00
36598;BME280;22607;49.550;11.940;2024-03-23T04:31:09;95791.25;;;7.68;100.00
36598;BME280;22607;49.550;11.940;2024-03-23T04:33:34;95803.09;;;7.64;100.00
36598;BME280;22607;49.550;11.940;2024-03-23T04:36:00;95797.94;;;7.70;100.00
36598;BME280;22607;49.550;11.940;2024-03-23T04:38:26;95795.78;;;7.74;100.00
36598;BME280;22607;49.550;11.940;2024-03-23T04:40:59;95790.56;;;7.74;100.00
36598;BME280;22607;49.550;11.940;2024-03-23T04:43:28;95795.41;;;7.77;100.00
36598;BME280;22607;49.550;11.940;2024-03-23T04:46:01;95787.69;;;7.69;100.00
36598;BME280;22607;49.550;11.940;2024-03-23T04:48:26;95761.88;;;7.51;100.00
36598;BME280;22607;49.550;11.940;2024-03-23T04:50:55;95765.34;;;7.66;100.00
36598;BME280;22607;49.550;11.940;2024-03-23T04:53:23;95781.16;;;7.49;100.00
36598;BME280;22607;49.550;11.940;2024-03-23T04:55:54;95781.06;;;7.43;100.00
36598;BME280;22607;49.550;11.940;2024-03-23T04:58:21;95778.03;;;7.54;100.00
36598;BME280;22607;49.550;11.940;2024-03-23T05:00:47;95762.97;;;7.56;100.00
36598;BME280;22607;49.550;11.940;2024-03-23T05:03:13;95741.91;;;7.58;100.00
36598;BME280;22607;49.550;11.940;2024-03-23T05:05:38;95736.38;;;7.68;100.00
36598;BME280;22607;49.550;11.940;2024-03-23T05:08:05;95762.69;;;7.81;100.00
36598;BME280;22607;49.550;11.940;2024-03-23T05:10:30;95745.75;;;7.77;100.00
36598;BME280;22607;49.550;11.940;2024-03-23T05:12:58;95736.69;;;7.73;100.00
36598;BME280;22607;49.550;11.940;2024-03-23T05:15:23;95740.16;;;7.80;100.00
36598;BME280;22607;49.550;11.940;2024-03-23T05:17:50;95731.44;;;7.73;100.00
36598;BME280;22607;49.550;11.940;2024-03-23T05:20:15;95727.66;;;7.75;100.00
36598;BME280;22607;49.550;11.940;2024-03-23T05:22:41;95723.50;;;7.81;100.00
36598;BME280;22607;49.550;11.940;2024-03-23T05:25:07;95709.25;;;7.84;100.00
36598;BME280;22607;49.550;11.940;2024-03-23T05:27:36;95721.88;;;7.95;100.00
36598;BME280;22607;49.550;11.940;2024-03-23T05:30:02;95721.56;;;8.05;100.00
36598;BME280;22607;49.550;11.940;2024-03-23T05:32:29;95720.75;;;8.05;100.00
36598;BME280;22607;49.550;11.940;2024-03-23T05:34:55;95715.38;;;7.91;100.00
36598;BME280;22607;49.550;11.940;2024-03-23T05:37:24;95726.53;;;8.00;100.00
36598;BME280;22607;49.550;11.940;2024-03-23T05:39:50;95708.44;;;7.83;100.00
36598;BME280;22607;49.550;11.940;2024-03-23T05:42:16;95712.50;;;7.86;100.00
36598;BME280;22607;49.550;11.940;2024-03-23T05:44:46;95701.22;;;7.85;100.00
36598;BME280;22607;49.550;11.940;2024-03-23T05:47:12;95711.03;;;7.98;100.00
36598;BME280;22607;49.550;11.940;2024-03-23T05:49:42;95709.97;;;7.93;100.00
36598;BME280;22607;49.550;11.940;2024-03-23T05:52:09;95706.09;;;7.88;100.00
36598;BME280;22607;49.550;11.940;2024-03-23T05:54:35;95731.16;;;7.98;100.00
36598;BME280;22607;49.550;11.940;2024-03-23T05:57:02;95722.81;;;8.09;100.00
36598;BME280;22607;49.550;11.940;2024-03-23T05:59:28;95725.25;;;8.48;100.00
36598;BME280;22607;49.550;11.940;2024-03-23T06:01:54;95711.75;;;9.16;100.00
36598;BME280;22607;49.550;11.940;2024-03-23T06:04:20;95718.03;;;9.51;100.00
36598;BME280;22607;49.550;11.940;2024-03-23T06:06:46;95709.97;;;9.59;100.00
36598;BME280;22607;49.550;11.940;2024-03-23T06:09:12;95709.63;;;10.24;100.00
36598;BME280;22607;49.550;11.940;2024-03-23T06:11:39;95701.50;;;10.88;100.00
36598;BME280;22607;49.550;11.940;2024-03-23T06:14:05;95680.69;;;11.14;100.00
36598;BME280;22607;49.550;11.940;2024-03-23T06:16:31;95690.28;;;11.67;100.00
36598;BME280;22607;49.550;11.940;2024-03-23T06:18:57;95687.63;;;12.20;100.00
36598;BME280;22607;49.550;11.940;2024-03-23T06:21:24;95686.47;;;12.48;100.00
36598;BME280;22607;49.550;11.940;2024-03-23T06:23:53;95666.59;;;12.78;100.00
36598;BME280;22607;49.550;11.940;2024-03-23T06:26:19;95677.06;;;13.35;97.63
36598;BME280;22607;49.550;11.940;2024-03-23T06:28:48;95665.50;;;13.93;91.76
36598;BME280;22607;49.550;11.940;2024-03-23T06:31:15;95663.03;;;14.10;90.28
36598;BME280;22607;49.550;11.940;2024-03-23T06:33:41;95661.41;;;13.78;94.26
36598;BME280;22607;49.550;11.940;2024-03-23T06:36:11;95656.44;;;14.00;91.33
36598;BME280;22607;49.550;11.940;2024-03-23T06:38:37;95666.47;;;13.17;99.05
36598;BME280;22607;49.550;11.940;2024-03-23T06:41:04;95662.50;;;12.56;100.00
36598;BME280;22607;49.550;11.940;2024-03-23T06:43:30;95658.88;;;11.79;100.00
36598;BME280;22607;49.550;11.940;2024-03-23T06:45:56;95660.56;;;11.53;100.00
36598;BME280;22607;49.550;11.940;2024-03-23T06:48:26;95660.41;;;11.35;100.00
36598;BME280;22607;49.550;11.940;2024-03-23T06:50:56;95670.75;;;11.16;100.00
36598;BME280;22607;49.550;11.940;2024-03-23T06:53:23;95656.22;;;11.07;100.00
36598;BME280;22607;49.550;11.940;2024-03-23T06:55:54;95678.06;;;11.00;100.00
36598;BME280;22607;49.550;11.940;2024-03-23T06:58:21;95682.50;;;10.80;100.00
36598;BME280;22607;49.550;11.940;2024-03-23T07:00:47;95665.13;;;10.65;100.00
36598;BME280;22607;49.550;11.940;2024-03-23T07:03:14;95694.63;;;10.74;100.00
36598;BME280;22607;49.550;11.940;2024-03-23T07:05:40;95688.16;;;10.63;100.00
36598;BME280;22607;49.550;11.940;2024-03-23T07:08:06;95722.66;;;10.53;100.00
36598;BME280;22607;49.550;11.940;2024-03-23T07:10:34;95727.31;;;10.44;100.00
36598;BME280;22607;49.550;11.940;2024-03-23T07:13:01;95712.28;;;10.31;100.00
36598;BME280;22607;49.550;11.940;2024-03-23T07:15:27;95715.94;;;10.37;100.00
36598;BME280;22607;49.550;11.940;2024-03-23T07:17:52;95709.63;;;10.11;100.00
36598;BME280;22607;49.550;11.940;2024-03-23T07:20:18;95701.75;;;10.18;100.00
36598;BME280;22607;49.550;11.940;2024-03-23T07:22:45;95689.81;;;10.02;100.00
36598;BME280;22607;49.550;11.940;2024-03-23T07:25:13;95703.38;;;10.19;100.00
36598;BME280;22607;49.550;11.940;2024-03-23T07:27:39;95695.50;;;10.12;100.00
36598;BME280;22607;49.550;11.940;2024-03-23T07:30:05;95692.78;;;9.85;100.00
36598;BME280;22607;49.550;11.940;2024-03-23T07:32:31;95685.34;;;9.95;100.00
36598;BME280;22607;49.550;11.940;2024-03-23T07:34:57;95690.81;;;10.01;100.00
36598;BME280;22607;49.550;11.940;2024-03-23T07:37:22;95698.28;;;10.04;100.00
36598;BME280;22607;49.550;11.940;2024-03-23T07:39:49;95699.91;;;10.11;100.00
36598;BME280;22607;49.550;11.940;2024-03-23T07:42:15;95693.25;;;10.09;100.00
36598;BME280;22607;49.550;11.940;2024-03-23T07:44:41;95694.88;;;10.17;100.00
36598;BME280;22607;49.550;11.940;2024-03-23T07:47:06;95698.50;;;10.09;100.00
36598;BME280;22607;49.550;11.940;2024-03-23T07:49:32;95700.56;;;10.20;100.00
36598;BME280;22607;49.550;11.940;2024-03-23T07:51:58;95710.78;;;10.08;100.00
36598;BME280;22607;49.550;11.940;2024-03-23T07:54:23;95723.50;;;10.05;100.00
36598;BME280;22607;49.550;11.940;2024-03-23T07:56:49;95720.28;;;10.03;100.00
36598;BME280;22607;49.550;11.940;2024-03-23T07:59:16;95710.00;;;10.08;100.00
36598;BME280;22607;49.550;11.940;2024-03-23T08:01:42;95709.97;;;10.01;100.00
36598;BME280;22607;49.550;11.940;2024-03-23T08:04:08;95699.25;;;9.89;100.00
36598;BME280;22607;49.550;11.940;2024-03-23T08:06:34;95702.31;;;10.00;100.00
36598;BME280;22607;49.550;11.940;2024-03-23T08:09:00;95690.41;;;10.04;100.00
36598;BME280;22607;49.550;11.940;2024-03-23T08:11:30;95711.78;;;10.01;100.00
36598;BME280;22607;49.550;11.940;2024-03-23T08:13:57;95705.31;;;9.96;100.00
36598;BME280;22607;49.550;11.940;2024-03-23T08:16:23;95715.19;;;9.94;100.00
36598;BME280;22607;49.550;11.940;2024-03-23T08:18:51;95722.22;;;9.87;100.00
36598;BME280;22607;49.550;11.940;2024-03-23T08:21:17;95724.47;;;9.90;100.00
36598;BME280;22607;49.550;11.940;2024-03-23T08:23:44;95724.63;;;9.82;100.00
36598;BME280;22607;49.550;11.940;2024-03-23T08:26:11;95726.44;;;9.81;100.00
36598;BME280;22607;49.550;11.940;2024-03-23T08:28:38;95724.09;;;10.00;100.00
36598;BME280;22607;49.550;11.940;2024-03-23T08:31:07;95721.16;;;10.23;100.00
36598;BME280;22607;49.550;11.940;2024-03-23T08:33:34;95732.06;;;10.34;100.00
36598;BME280;22607;49.550;11.940;2024-03-23T08:36:02;95722.22;;;10.43;100.00
36598;BME280;22607;49.550;11.940;2024-03-23T08:38:28;95717.22;;;10.48;100.00
36598;BME280;22607;49.550;11.940;2024-03-23T08:41:04;95735.81;;;10.67;100.00
36598;BME280;22607;49.550;11.940;2024-03-23T08:43:32;95741.38;;;10.36;100.00
36598;BME280;22607;49.550;11.940;2024-03-23T08:46:11;95740.56;;;10.36;100.00
36598;BME280;22607;49.550;11.940;2024-03-23T08:48:42;95760.94;;;10.34;100.00
36598;BME280;22607;49.550;11.940;2024-03-23T08:51:15;95771.50;;;10.47;100.00
36598;BME280;22607;49.550;11.940;2024-03-23T08:53:42;95772.47;;;10.40;100.00
36598;BME280;22607;49.550;11.940;2024-03-23T08:56:09;95776.16;;;10.45;100.00
36598;BME280;22607;49.550;11.940;2024-03-23T08:58:37;95778.13;;;10.43;100.00
36598;BME280;22607;49.550;11.940;2024-03-23T09:01:08;95774.56;;;10.44;100.00
36598;BME280;22607;49.550;11.940;2024-03-23T09:03:34;95783.34;;;10.30;100.00
36598;BME280;22607;49.550;11.940;2024-03-23T09:06:02;95799.91;;;10.37;100.00
36598;BME280;22607;49.550;11.940;2024-03-23T09:08:28;95799.28;;;10.28;100.00
36598;BME280;22607;49.550;11.940;2024-03-23T09:10:53;95802.63;;;10.08;100.00
36598;BME280;22607;49.550;11.940;2024-03-23T09:13:19;95827.00;;;10.02;100.00
36598;BME280;22607;49.550;11.940;2024-03-23T09:15:50;95845.75;;;9.99;100.00
36598;BME280;22607;49.550;11.940;2024-03-23T09:18:16;95860.56;;;9.78;100.00
36598;BME280;22607;49.550;11.940;2024-03-23T09:20:42;95857.03;;;9.93;100.00
36598;BME280;22607;49.550;11.940;2024-03-23T09:23:09;95850.94;;;9.57;100.00
36598;BME280;22607;49.550;11.940;2024-03-23T09:25:38;95857.44;;;9.96;100.00
36598;BME280;22607;49.550;11.940;2024-03-23T09:28:06;95856.22;;;9.92;100.00
36598;BME280;22607;49.550;11.940;2024-03-23T09:30:34;95869.56;;;9.97;100.00
36598;BME280;22607;49.550;11.940;2024-03-23T09:33:00;95871.84;;;10.07;100.00
36598;BME280;22607;49.550;11.940;2024-03-23T09:35:26;95881.50;;;10.42;100.00
36598;BME280;22607;49.550;11.940;2024-03-23T09:37:52;95867.34;;;10.36;100.00
36598;BME280;22607;49.550;11.940;2024-03-23T09:40:18;95853.31;;;10.44;100.00
36598;BME280;22607;49.550;11.940;2024-03-23T09:42:50;95864.13;;;10.76;100.00
36598;BME280;22607;49.550;11.940;2024-03-23T09:45:23;95873.28;;;10.45;100.00
36598;BME280;22607;49.550;11.940;2024-03-23T09:47:51;95876.44;;;10.41;100.00
36598;BME280;22607;49.550;11.940;2024-03-23T09:50:17;95885.94;;;10.35;100.00
36598;BME280;22607;49.550;11.940;2024-03-23T09:52:45;95877.78;;;10.23;100.00
36598;BME280;22607;49.550;11.940;2024-03-23T09:55:11;95900.00;;;10.20;100.00
36598;BME280;22607;49.550;11.940;2024-03-23T09:57:36;95914.09;;;10.19;100.00
36598;BME280;22607;49.550;11.940;2024-03-23T10:00:03;95923.91;;;10.39;100.00
36598;BME280;22607;49.550;11.940;2024-03-23T10:02:30;95936.38;;;10.30;100.00
36598;BME280;22607;49.550;11.940;2024-03-23T10:04:56;95953.50;;;9.97;100.00
36598;BME280;22607;49.550;11.940;2024-03-23T10:07:23;95957.03;;;9.83;100.00
36598;BME280;22607;49.550;11.940;2024-03-23T10:09:49;95959.84;;;9.81;100.00
36598;BME280;22607;49.550;11.940;2024-03-23T10:12:19;95972.25;;;9.72;100.00
36598;BME280;22607;49.550;11.940;2024-03-23T10:14:46;95985.13;;;9.89;100.00
36598;BME280;22607;49.550;11.940;2024-03-23T10:17:16;95985.56;;;10.21;100.00
36598;BME280;22607;49.550;11.940;2024-03-23T10:19:45;95980.72;;;10.89;100.00
36598;BME280;22607;49.550;11.940;2024-03-23T10:22:17;95970.84;;;11.60;98.48
36598;BME280;22607;49.550;11.940;2024-03-23T10:24:43;95975.03;;;11.34;90.50
36598;BME280;22607;49.550;11.940;2024-03-23T10:27:09;95974.41;;;10.41;96.36
36598;BME280;22607;49.550;11.940;2024-03-23T10:29:34;95981.41;;;10.05;100.00
36598;BME280;22607;49.550;11.940;2024-03-23T10:32:14;95988.84;;;10.30;96.06
36598;BME280;22607;49.550;11.940;2024-03-23T10:34:41;95989.81;;;10.22;100.00
36598;BME280;22607;49.550;11.940;2024-03-23T10:37:08;96012.47;;;10.52;94.71
36598;BME280;22607;49.550;11.940;2024-03-23T10:39:35;96002.16;;;10.50;87.91
36598;BME280;22607;49.550;11.940;2024-03-23T10:42:09;95987.50;;;10.41;85.36
36598;BME280;22607;49.550;11.940;2024-03-23T10:44:38;96014.44;;;10.21;82.47
36598;BME280;22607;49.550;11.940;2024-03-23T10:47:07;95996.72;;;10.02;87.04
36598;BME280;22607;49.550;11.940;2024-03-23T10:49:33;96010.34;;;9.90;84.47
36598;BME280;22607;49.550;11.940;2024-03-23T10:52:02;96029.38;;;9.99;80.92
36598;BME280;22607;49.550;11.940;2024-03-23T10:54:30;96061.84;;;9.76;84.06
36598;BME280;22607;49.550;11.940;2024-03-23T10:57:13;96067.09;;;9.76;78.34
36598;BME280;22607;49.550;11.940;2024-03-23T10:59:40;96061.94;;;9.46;77.99
36598;BME280;22607;49.550;11.940;2024-03-23T11:02:06;96042.34;;;9.27;80.23
36598;BME280;22607;49.550;11.940;2024-03-23T11:04:36;96052.19;;;9.62;79.77
36598;BME280;22607;49.550;11.940;2024-03-23T11:09:54;96052.56;;;9.74;81.56
36598;BME280;22607;49.550;11.940;2024-03-23T11:14:59;96028.69;;;9.90;72.61
36598;BME280;22607;49.550;11.940;2024-03-23T11:17:26;96044.28;;;9.77;75.82
36598;BME280;22607;49.550;11.940;2024-03-23T11:20:19;96050.44;;;9.84;74.97
36598;BME280;22607;49.550;11.940;2024-03-23T11:22:56;96051.44;;;9.83;75.09
36598;BME280;22607;49.550;11.940;2024-03-23T11:25:23;96067.56;;;10.02;74.40
36598;BME280;22607;49.550;11.940;2024-03-23T11:27:51;96057.06;;;10.02;71.99
36598;BME280;22607;49.550;11.940;2024-03-23T11:30:20;96054.91;;;9.68;71.13
36598;BME280;22607;49.550;11.940;2024-03-23T11:32:48;96056.13;;;9.88;71.74
36598;BME280;22607;49.550;11.940;2024-03-23T11:35:34;96058.59;;;9.74;70.83
36598;BME280;22607;49.550;11.940;2024-03-23T11:38:12;96055.28;;;9.65;68.31
36598;BME280;22607;49.550;11.940;2024-03-23T11:40:40;96062.66;;;9.77;69.21
36598;BME280;22607;49.550;11.940;2024-03-23T11:43:12;96045.06;;;9.70;68.62
36598;BME280;22607;49.550;11.940;2024-03-23T11:45:44;96037.13;;;9.64;68.16
36598;BME280;22607;49.550;11.940;2024-03-23T11:48:13;96051.06;;;9.64;66.50
36598;BME280;22607;49.550;11.940;2024-03-23T11:50:43;96058.81;;;9.94;66.72
36598;BME280;22607;49.550;11.940;2024-03-23T11:53:16;96064.41;;;10.13;67.72
36598;BME280;22607;49.550;11.940;2024-03-23T11:55:43;96074.13;;;10.41;63.36
36598;BME280;22607;49.550;11.940;2024-03-23T11:58:10;96079.34;;;10.56;64.60
36598;BME280;22607;49.550;11.940;2024-03-23T12:00:36;96083.91;;;10.47;65.94
36598;BME280;22607;49.550;11.940;2024-03-23T12:03:02;96068.41;;;10.31;64.87
36598;BME280;22607;49.550;11.940;2024-03-23T12:05:29;96071.56;;;9.97;62.86
36598;BME280;22607;49.550;11.940;2024-03-23T12:07:55;96067.03;;;9.69;60.45
36598;BME280;22607;49.550;11.940;2024-03-23T12:10:40;96087.44;;;9.74;62.47
36598;BME280;22607;49.550;11.940;2024-03-23T12:13:06;96075.03;;;10.05;62.39
36598;BME280;22607;49.550;11.940;2024-03-23T12:15:32;96093.09;;;10.15;60.35
36598;BME280;22607;49.550;11.940;2024-03-23T12:18:08;96082.66;;;10.21;61.38
36598;BME280;22607;49.550;11.940;2024-03-23T12:20:36;96098.72;;;10.11;60.14
36598;BME280;22607;49.550;11.940;2024-03-23T12:25:32;96112.88;;;9.74;59.81
36598;BME280;22607;49.550;11.940;2024-03-23T12:27:59;96108.06;;;9.77;61.03
36598;BME280;22607;49.550;11.940;2024-03-23T12:30:44;96116.72;;;9.78;58.44
36598;BME280;22607;49.550;11.940;2024-03-23T12:33:10;96099.28;;;9.70;59.95
36598;BME280;22607;49.550;11.940;2024-03-23T12:35:37;96108.84;;;9.78;60.27
36598;BME280;22607;49.550;11.940;2024-03-23T12:38:03;96106.50;;;10.05;59.04
36598;BME280;22607;49.550;11.940;2024-03-23T12:40:29;96101.53;;;9.88;58.58
36598;BME280;22607;49.550;11.940;2024-03-23T12:42:54;96066.22;;;9.69;54.73
36598;BME280;22607;49.550;11.940;2024-03-23T12:45:22;96069.09;;;9.37;54.42
36598;BME280;22607;49.550;11.940;2024-03-23T12:47:47;96076.53;;;9.92;56.32
36598;BME280;22607;49.550;11.940;2024-03-23T12:50:13;96071.53;;;10.19;55.42
36598;BME280;22607;49.550;11.940;2024-03-23T12:52:39;96054.16;;;10.18;54.11
36598;BME280;22607;49.550;11.940;2024-03-23T12:55:05;96060.53;;;10.31;52.41
36598;BME280;22607;49.550;11.940;2024-03-23T12:57:33;96064.66;;;10.69;55.78
36598;BME280;22607;49.550;11.940;2024-03-23T13:00:00;96045.88;;;10.65;50.36
36598;BME280;22607;49.550;11.940;2024-03-23T13:02:26;96056.13;;;10.60;48.56
36598;BME280;22607;49.550;11.940;2024-03-23T13:04:52;96077.03;;;10.46;49.86
36598;BME280;22607;49.550;11.940;2024-03-23T13:07:19;96057.75;;;10.61;52.82
36598;BME280;22607;49.550;11.940;2024-03-23T13:09:46;96048.75;;;11.12;50.80
36598;BME280;22607;49.550;11.940;2024-03-23T13:12:12;96075.13;;;11.26;51.24
36598;BME280;22607;49.550;11.940;2024-03-23T13:14:38;96071.88;;;11.31;51.12
36598;BME280;22607;49.550;11.940;2024-03-23T13:17:05;96079.09;;;11.15;51.31
36598;BME280;22607;49.550;11.940;2024-03-23T13:19:31;96076.78;;;11.40;52.32
36598;BME280;22607;49.550;11.940;2024-03-23T13:22:01;96072.94;;;11.01;49.04
36598;BME280;22607;49.550;11.940;2024-03-23T13:24:27;96079.97;;;11.29;49.56
36598;BME280;22607;49.550;11.940;2024-03-23T13:26:54;96074.03;;;11.13;50.01
36598;BME280;22607;49.550;11.940;2024-03-23T13:29:20;96061.09;;;10.76;47.96
36598;BME280;22607;49.550;11.940;2024-03-23T13:31:47;96078.16;;;10.94;49.94
36598;BME280;22607;49.550;11.940;2024-03-23T13:34:13;96066.91;;;11.00;48.52
36598;BME280;22607;49.550;11.940;2024-03-23T13:36:46;96081.41;;;10.96;49.12
36598;BME280;22607;49.550;11.940;2024-03-23T13:39:13;96068.50;;;10.66;48.30
36598;BME280;22607;49.550;11.940;2024-03-23T13:41:40;96080.09;;;10.50;50.65
36598;BME280;22607;49.550;11.940;2024-03-23T13:44:07;96072.59;;;10.47;51.27
36598;BME280;22607;49.550;11.940;2024-03-23T13:46:33;96072.28;;;10.35;51.00
36598;BME280;22607;49.550;11.940;2024-03-23T13:49:00;96087.28;;;10.19;52.02